ペトロパブロフスク・カムチャツキー の空港の天気 - METARとTAF

ペトロパブロフスク・カムチャツキー空港 ( UHPP / PKC ) - ロシア ペトロパブロフスク・カムチャツキー
飛行場実況気象(Metar)
観測時間04/25 18:00 MAGT (04/25 07:00 UTC)
風向・風速東南東 7m/s
視程10km以上
天気現象
全天の8割程度の雲 雲底高度 910m
全天の8割程度の雲 雲底高度 1400m
気温2℃
湿度87%
気圧1004hPa
METARUHPP 250700Z 12007MPS 9999 BKN030CB BKN046 02/00 Q1004 R16R/290150 NOSIG RMK MT OBSC QFE750/1000
過去の天気等 Google飛行場航空写真 Wunderground天気予報

過去48時間のMETAR

飛行場予報(TAF)
発表時間: 4/25 15:51 MAGT (4/25 04:51 UTC)
予報対象時間: 25日17時 MAGT ~ 26日23時 MAGT
風向・風速南東 3m/s 瞬間風速 12m/s
視程5000m
天気現象弱いしゅう雪雨 もや
全天の8割程度の雲 雲底高度 180m
全天を覆う積乱雲 雲底高度 610m
25日17時 MAGT ~ 25日20時 MAGT に一時的に
風向・風速東 7m/s 瞬間風速 17m/s
視程1000m
天気現象しゅう雪雨
全天の8割程度の雲 雲底高度 120m
全天を覆う積乱雲 雲底高度 370m
25日20時 MAGT から
風向・風速東南東 3m/s 瞬間風速 12m/s
視程3100m
天気現象弱いしゅう雪雨 もや
全天の8割程度の雲 雲底高度 120m
全天を覆う積乱雲 雲底高度 370m
25日20時 MAGT ~ 26日8時 MAGT に一時的に
風向・風速北北東 3m/s 瞬間風速 12m/s
視程700m
天気現象しゅう雪雨 霧
全天を覆う雲 鉛直視程 90m
26日8時 MAGT から
風向・風速北西 6m/s 瞬間風速 15m/s
視程10km以上
全天の8割程度の積乱雲 雲底高度 610m
26日8時 MAGT ~ 26日23時 MAGT に一時的に
風向・風速西 9m/s 瞬間風速 19m/s
TAF UHPP 250451Z 2506/2612 14003G12MPS 5000 -SHSNRA BR BKN006 OVC020CB
TEMPO 2506/2509 10007G17MPS 1000 SHSNRA BKN004 OVC012CB
FM250900 11003G12MPS 3100 -SHSNRA BR BKN004 OVC012CB
TEMPO 2509/2521 02003G12MPS 0700 SHSNRA FG VV003
FM252100 31006G15MPS 9999 BKN020CB
TEMPO 2521/2612 27009G19MPS